Questo sito fa uso di cookie per migliorare l’esperienza di navigazione degli utenti e per raccogliere informazioni sull’utilizzo del sito stesso. Proseguendo nella navigazione si accetta l’uso dei cookie; in caso contrario è possibile abbandonare il sito.

[source: ADDS]
METAR
LIPA 231055Z 05002KT 9999 2200SW BR SCT025 OVC030 08/06 Q1017 RMK OVC VIS MIN 2200SW WIND THR05 00000KT WIND THR23 00000KT A3004 YLO =
LIPB 231050Z 17005KT 5000 BR SCT035 OVC060 10/04 Q1015 =
LIPC 231055Z 36003KT 2000 BR OVC002 06/04 Q1017 RMK OVC VIS MIN 2000 WIND THR11 25003KT WIND THR29 36003KT AMB =
LIPE 231120Z 02005KT 330V060 3500 BR NSC 09/06 Q1017 =
LIPF 231055Z 00000KT 1200 BR SCT003 06/06 Q1017 RMK SCT VIS MIN 1200 =
LIPH 231120Z VRB02KT 1500 BR BKN008 08/06 Q1017 =
LIPI 231055Z /////KT 2500 BR SCT006 BKN030 07/05 Q1017 RMK OVC VIS MIN 2500 WIND THR06 07003KT WIND THR24 07003KT YLO =
LIPK 231050Z 00000KT 1500 BR SCT008 07/04 Q1017 =
LIPL 231055Z /////KT 1000 R31/0900N BR FEW002 SCT004 08/06 Q1017 RMK OVC VIS MIN 1000 WIND THR31 16003KT AMB =
LIPU 230700Z VRB02KT 0500 -DZ FG OVC003 07/06 Q1017 =
LIPO 231115Z 12003KT 0800 R32/P2000 FG OVC003 08/07 Q1016 =
LIPQ 231120Z VRB02KT 2000 BR SCT015 BKN030 08/07 Q1017 =
LIPR 231115Z 35003KT 2500 BR OVC002 07/05 Q1017 =
LIPS 231055Z 06002KT 1600 BR SCT003 BKN005 07/06 Q1017 RMK OVC VIS MIN 1600 WIND THR26 06001KT WIND THR08 06002KT YLO =
LIPU 230700Z VRB02KT 0500 -DZ FG OVC003 07/06 Q1017 =
LIPX 231120Z 11005KT 060V150 2500 BR BKN010 09/06 Q1017 =
LIPY 231050Z 22011KT 9999 FEW030 18/08 Q1016 =
LIPZ 231120Z 07004KT 030V130 2000 BR BKN006 08/07 Q1017 BECMG 4000 BR =
LIVC 231055Z 24006KT CAVOK 05/M06 Q1017 RMK FEW FEW160 MON CNS POST NC VAL NIL VIS MIN 9999 =
LIVD 231055Z /////KT 8000 NSC 04/02 Q1014 RMK SCT SCT070 VIS MIN 8000 =
LIVE 231055Z 02004KT CAVOK 09/M06 Q1010 RMK BKN BKN200 VIS MIN 9999 =
LIVF 231055Z 35003KT 9999 FEW028 13/05 Q1016 RMK FEW MON S CIME INC VAL NIL VIS MIN 9999 =
LIVO 231055Z 29013KT 9999 FEW030 07/03 Q1012 RMK SCT SCT200 VIS MIN 9999 =
LIVP 231055Z 20012KT CAVOK 04/M10 Q1013 RMK SCT FEW080 SCT200 MON LIB VAL MAR CLD VIS MIN 9999 =
LIVR 231055Z 32003KT CAVOK 05/M12 Q1011 RMK SKC MON LIB VIS MIN 9999 =
LIVT 231055Z 00000KT 1200 BR FEW008 BKN015 09/07 Q1017 RMK OVC QUK 0 QUL 0 VIS MAR 1200 M VIS MIN 1200 =
LIMC 231120Z VRB02KT 3000 BR BKN025 09/06 Q1016 NOSIG =
LIME 231120Z 15003KT 110V200 1400 R28/P2000VP2000U BR SCT004 BKN025 07/06 Q1016 =
LIMF 231120Z VRB01KT 3500 BR BKN025 08/07 Q1015 =
LIMG 231050Z 00000KT 9999 BKN035 13/08 Q1016 =
LIMH 231055Z /////KT 9999 FEW030 M05/M21 Q1016 RMK SCT MON LIB VAL NIL VIS MIN 9999 =
LIMJ 231120Z 18007KT 9999 FEW012 BKN016 13/10 Q1017 =
LIMK 231055Z 18003KT 3000 BR BKN010 06/06 Q1015 RMK OVC SCT070 VAL NEBBIA VIS MIN 3000 =
LIML 231120Z VRB02KT 2000 BR BKN004 BKN025 06/06 Q1016 NOSIG =
LIMN 231055Z 07004KT 040V100 2500 BR SCT025 BKN030 07/04 Q1016 RMK OVC VIS MIN 2500 YLO =
LIMS 231055Z 12004KT 0800 R30/1100 R12/0900 FG OVC002 05/05 Q1016 RMK OVC VIS MIN 0800 WIND THR30 07003KT AMB =
LIMT 231055Z 20022KT 0000 FG VV/// 04/03 Q1015 RMK MON INVIS VAL INVIS VIS MIN 0000 =
LIMU 231055Z 22014KT 9999 FEW033 11/10 Q1017 RMK BKN BKN200 QUK 3 QUL 1 S VIS MAR 30 KM VIS MIN 9999 =
LIMV 231055Z /////KT 9999 SCT007 BKN015 09/07 Q1017 RMK OVC MON GEN INC NC VAL NIL VIS MIN 9999 =
LIMY 231055Z VRB03KT 3000 BR NSC 08/06 Q1016 RMK BKN BKN070 VAL FOSCHIA VIS MIN 3000 =
TAF
TAF LIPA 231100Z 2312/2321 VRB03KT 5000 BR SCT020 BKN030 TEMPO 2318/2321 RA =
TAF LIPB 231100Z 2312/2412 VRB05KT 4000 BR SCT030 =
TAF LIPC 231100Z 2312/2321 VRB03KT 3000 BR NSC BECMG 2318/2320 0800 FG BKN004 =
TAF LIPE 231100Z 2312/2412 VRB05KT 0800 FG BKN002 TEMPO 2312/2321 4000 BR BECMG 2407/2409 7000 SCT030 TEMPO 2409/2412 4000 RA =
TAF LIPH 231100Z 2312/2412 VRB05KT 0500 FG BKN002 TEMPO 2312/2321 4000 BR BECMG 2408/2410 7000 SCT030 =
TAF LIPI 231100Z 2312/2321 VRB03KT 2500 BR SCT005 BKN030 TEMPO 2318/2321 RA =
TAF LIPL 231100Z 2312/2321 12005KT 2000 BR SCT020 BECMG 2318/2320 0600 FG BKN003 =
TAF LIPO 231100Z 2312/2412 VRB05KT 2000 BR BKN013 BECMG 2322/2324 1200 BCFG =
TAF LIPQ 231100Z 2312/2412 VRB05KT 1300 BR BKN010 TEMPO 2312/2318 5000 SCT020 =
TAF LIPR 231100Z 2312/2321 VRB03KT 3000 BR NSC BECMG 2318/2320 0800 FG BKN004 =
TAF LIPS 231100Z 2312/2321 VRB03KT 2000 BR SCT005 BKN030 =
TAF LIPX 231100Z 2312/2321 VRB05KT 3000 BR BKN020 BECMG 2318/2320 1200 BCFG BKN006 =
TAF LIPY 231100Z 2312/2412 VRB05KT 7000 NSC TEMPO 2400/2406 0600 FG BKN002 TEMPO 2409/2412 4000 RA =
TAF LIPZ 231100Z 2312/2418 VRB05KT 0500 FG BKN002 TEMPO 2312/2321 3000 BR BECMG 2409/2411 7000 SCT030 TEMPO 2412/2418 4000 RA =
TAF LIMC 231100Z 2312/2418 VRB05KT 3000 BR BKN016 BECMG 2320/2322 1200 BCFG TEMPO 2402/2408 0600 FG =
TAF LIME 231100Z 2312/2412 VRB05KT 2000 BR BKN013 TEMPO 2403/2409 0400 FG =
TAF LIMF 231100Z 2312/2412 VRB05KT 3500 BR BKN010 BECMG 2319/2321 0600 FG OVC001 =
TAF LIMJ 231100Z 2312/2412 15007KT 9999 BKN030 =
TAF LIML 231100Z 2312/2412 VRB05KT 2500 BR BKN013 BECMG 2320/2322 1200 BCFG TEMPO 2402/2408 0300 FG BKN004 =
TAF LIMN 231100Z 2312/2321 VRB03KT 2000 BR SCT020 BKN030 BECMG 2318/2320 0600 FG BKN002 PROB40 TEMPO 2318/2321 RA =
TAF LIMS 231100Z 2312/2321 08005KT 0800 FG SCT003 TEMPO 2312/2318 2000 BR SCT020 =
SR / SS: 05:59 / 16:51 UTC (Effemeridi Aeroporto di Padova - LIPU 2017-02-23)

Immagini e previsioni meteo non aeronautiche

 

 

Immagini dal Radar Meteorologico del sito ARPAV. Orario UTC.

 

Immagine dal sito Meteo Sat Online

 

Legenda codici ICAO del nord Italia

 

In ordine di codice   In ordine di località
LIMC
Milano / Malpensa LIMG Albenga
LIME Bergamo / Orio Al Serio LIPA Aviano
LIMF Torino / Caselle LIME Bergamo / Orio Al Serio
LIMG Albenga LIPE Bologna / Borgo Panigale
LIMH Pian Rosa LIPB Bolzano
LIMJ Genova / Sestri LIPL Brescia / Ghedi
LIMK Torino / Bric Della Croce LIPO Brescia / Montichiari
LIML Milano / Linate LIMU Capo Mele
LIMN Novara / Cameri LIPC Cervia
LIMO Monte Bisbino LIVD Dobbiaco
LIMS Piacenza LIPP Dova Area Control Center
LIMT Passo Della Cisa LIPY Falconara
LIMU Capo Mele LIPF Ferrara
LIMV Passo Dei Giovi LIPK Forli
LIMY Monte Malanotte LIVF Frontone
LIPA Aviano LIMJ Genova / Sestri
LIPB Bolzano LIML Milano / Linate
LIPC Cervia
LIMC
Milano / Malpensa
LIPD Udine / Campoformido LIMO Monte Bisbino
LIPE Bologna / Borgo Panigale LIVC Monte Cimone
LIPF Ferrara LIMY Monte Malanotte
LIPH Treviso / S. Angelo LIMN Novara / Cameri
LIPI Udine / Rivolto LIPU Padova
LIPK Forli LIVP Paganella
LIPL Brescia / Ghedi LIMV Passo Dei Giovi
LIPO Brescia / Montichiari LIMT Passo Della Cisa
LIPP Dova Area Control Center LIVR Passo Rolle
LIPQ Ronchi Dei Legionari LIMS Piacenza
LIPR Rimini LIMH Pian Rosa
LIPS Treviso / Istrana LIVM Punta Marina
LIPT Vicenza LIVE Resia Pass
LIPU Padova LIPR Rimini
LIPX Verona / Villafranca LIPQ Ronchi Dei Legionari
LIPY Falconara LIVO Tarvisio
LIPZ Venezia / Tessera LIMK Torino / Bric Della Croce
LIVC Monte Cimone LIMF Torino / Caselle
LIVD Dobbiaco LIPS Treviso / Istrana
LIVE Resia Pass LIPH Treviso / S. Angelo
LIVF Frontone LIVT
Trieste
LIVM Punta Marina LIPD Udine / Campoformido
LIVO Tarvisio LIPI Udine / Rivolto
LIVP Paganella LIPZ Venezia / Tessera
LIVR Passo Rolle LIPX Verona / Villafranca
LIVT Trieste LIPT Vicenza

 

 

 

 

 

 

 

 

 

 

 

 

 

 

 

 

 

 

 

 

 

 

 

 

 

 

 

 

 

 

 

 

 

 

 

 

 

 

 

 

 

 

 

 

 

 

 

 

 

 

 

 

 

 

 

 

 

 

 

 

L'Aeroclub di Padova si limita a riportare informazioni fornite da terze parti, e non ha quindi alcuna responsabilità sul contenuto. Per la pianificazione dei propri voli si raccomanda l'utilizzo delle fonti ufficiali.

Copyright 2011. Free joomla templates | © Aeroclub Padova - Scuola di Volo, Ditta di manutenzione, CAMO Via Sorio, 89 - 35141 Padova Tel. 049 8718599 Fax 049 8717699 info@aeroclubpadova.it